createdAt,value
2023-05-03T00:02:26.284Z,100485.91
2023-05-03T00:06:29.449Z,100489.53
2023-05-03T00:10:33.825Z,100488.72
2023-05-03T00:14:37.057Z,100495.91
2023-05-03T00:18:40.154Z,100494.69
2023-05-03T00:22:42.907Z,100496.56
2023-05-03T00:26:48.238Z,100495.78
2023-05-03T00:30:51.910Z,100489.03
2023-05-03T00:34:55.605Z,100489.25
2023-05-03T00:38:58.864Z,100485.88
2023-05-03T00:43:03.404Z,100477.19
2023-05-03T00:47:07.363Z,100481.75
2023-05-03T00:51:12.399Z,100486.88
2023-05-03T00:55:17.011Z,100481.38
2023-05-03T00:59:21.995Z,100489.28
2023-05-03T01:03:25.166Z,100501.75
2023-05-03T01:07:36.758Z,100508.69
2023-05-03T01:11:47.688Z,100516.63
2023-05-03T01:16:04.852Z,100520.31
2023-05-03T01:20:11.542Z,100520.66
2023-05-03T01:24:23.560Z,100525.56
2023-05-03T01:28:28.011Z,100522.41
2023-05-03T01:32:38.125Z,100531.56
2023-05-03T01:36:45.514Z,100532.88
2023-05-03T01:40:52.656Z,100540.41
2023-05-03T01:44:58.190Z,100542.69
2023-05-03T01:49:01.360Z,100542.19
2023-05-03T01:53:04.645Z,100546.38
2023-05-03T01:57:07.959Z,100536.63
2023-05-03T02:01:12.469Z,100539.13
2023-05-03T02:05:15.709Z,100530.31
2023-05-03T02:09:18.444Z,100530.31
2023-05-03T02:13:21.577Z,100517.16
2023-05-03T02:17:27.219Z,100527.06
2023-05-03T02:21:30.430Z,100535.03
2023-05-03T02:25:33.612Z,100534.97
2023-05-03T02:29:36.890Z,100546.31
2023-05-03T02:33:43.046Z,100540.94
2023-05-03T02:37:46.362Z,100528.00
2023-05-03T02:41:49.389Z,100528.19
2023-05-03T02:45:59.492Z,100532.69
2023-05-03T02:50:08.164Z,100520.47
2023-05-03T02:54:14.144Z,100525.78
2023-05-03T02:58:18.603Z,100534.59
2023-05-03T03:02:22.262Z,100536.44
2023-05-03T03:06:26.744Z,100545.19
2023-05-03T03:10:29.961Z,100542.50
2023-05-03T03:14:32.866Z,100546.94
2023-05-03T03:18:36.101Z,100570.81
2023-05-03T03:22:40.713Z,100577.13
2023-05-03T03:26:43.544Z,100585.97
2023-05-03T03:30:46.402Z,100592.03
2023-05-03T03:34:49.311Z,100600.66
2023-05-03T03:38:53.481Z,100595.47
2023-05-03T03:42:58.330Z,100612.81
2023-05-03T03:47:01.302Z,100592.63
2023-05-03T03:51:04.145Z,100595.06
2023-05-03T03:55:10.460Z,100592.84
2023-05-03T03:59:13.807Z,100600.34
2023-05-03T04:03:17.772Z,100604.28
2023-05-03T04:07:22.057Z,100614.41
2023-05-03T04:11:26.681Z,100623.56
2023-05-03T04:15:29.984Z,100636.16
2023-05-03T04:19:33.283Z,100631.00
2023-05-03T04:23:35.840Z,100632.53
2023-05-03T04:27:40.265Z,100638.47
2023-05-03T04:31:46.455Z,100637.03
2023-05-03T04:35:52.458Z,100642.50
2023-05-03T04:39:55.507Z,100639.03
2023-05-03T04:44:00.057Z,100650.19
2023-05-03T04:48:05.657Z,100650.31
2023-05-03T04:52:10.935Z,100654.28
2023-05-03T04:56:14.052Z,100647.09
2023-05-03T05:00:19.258Z,100662.94
2023-05-03T05:04:21.949Z,100662.28
2023-05-03T05:08:24.996Z,100663.00
2023-05-03T05:12:28.597Z,100677.78
2023-05-03T05:16:33.679Z,100682.53
2023-05-03T05:20:37.101Z,100691.09
2023-05-03T05:24:40.248Z,100686.69
2023-05-03T05:28:43.430Z,100690.09
2023-05-03T05:32:48.000Z,100693.16
2023-05-03T05:36:52.391Z,100682.34
2023-05-03T05:40:55.988Z,100692.53
2023-05-03T05:44:58.732Z,100679.75
2023-05-03T05:49:03.183Z,100697.50
2023-05-03T05:53:06.357Z,100715.78
2023-05-03T05:57:09.576Z,100718.97
2023-05-03T06:01:13.033Z,100724.06
2023-05-03T06:05:17.670Z,100732.69
2023-05-03T06:09:24.702Z,100745.84
2023-05-03T06:13:28.100Z,100748.16
2023-05-03T06:17:31.429Z,100741.09
2023-05-03T06:21:36.069Z,100755.81
2023-05-03T06:25:38.959Z,100751.19
2023-05-03T06:29:41.737Z,100766.06
2023-05-03T06:33:44.660Z,100754.03
2023-05-03T06:37:48.877Z,100754.16
2023-05-03T06:41:51.748Z,100752.41
2023-05-03T06:45:54.816Z,100760.56
2023-05-03T06:49:58.194Z,100763.03
2023-05-03T06:54:07.046Z,100760.50
2023-05-03T06:58:11.934Z,100766.91
2023-05-03T07:02:14.888Z,100768.78
2023-05-03T07:06:18.597Z,100775.38
2023-05-03T07:10:23.658Z,100778.03
2023-05-03T07:14:27.497Z,100778.56
2023-05-03T07:18:30.531Z,100771.66
2023-05-03T07:22:33.521Z,100777.25
2023-05-03T07:26:37.814Z,100780.22
2023-05-03T07:30:41.053Z,100776.91
2023-05-03T07:34:43.972Z,100771.66
2023-05-03T07:38:48.398Z,100786.81
2023-05-03T07:42:52.833Z,100783.88
2023-05-03T07:46:55.799Z,100781.97
2023-05-03T07:50:59.023Z,100781.84
2023-05-03T07:55:03.424Z,100787.28
2023-05-03T07:59:09.808Z,100786.69
2023-05-03T08:03:14.104Z,100782.03
2023-05-03T08:07:17.767Z,100778.31
2023-05-03T08:11:20.653Z,100778.94
2023-05-03T08:15:24.823Z,100789.91
2023-05-03T08:19:27.935Z,100786.84
2023-05-03T08:23:31.228Z,100783.13
2023-05-03T08:27:34.782Z,100778.31
2023-05-03T08:31:40.157Z,100778.16
2023-05-03T08:35:43.415Z,100776.31
2023-05-03T08:39:47.692Z,100776.13
2023-05-03T08:43:54.951Z,100789.69
2023-05-03T08:48:01.721Z,100787.03
2023-05-03T08:52:07.023Z,100795.03
2023-05-03T08:56:12.785Z,100790.44
2023-05-03T09:00:19.665Z,100788.06
2023-05-03T09:04:35.068Z,100788.56
2023-05-03T09:08:44.899Z,100782.94
2023-05-03T09:12:47.910Z,100789.13
2023-05-03T09:16:51.424Z,100793.16
2023-05-03T09:20:57.336Z,100782.41
2023-05-03T09:25:04.313Z,100793.09
2023-05-03T09:29:07.501Z,100793.66
2023-05-03T09:33:11.827Z,100798.38
2023-05-03T09:37:16.714Z,100794.63
2023-05-03T09:41:29.149Z,100799.63
2023-05-03T09:45:32.004Z,100801.16
2023-05-03T09:49:35.206Z,100795.06
2023-05-03T09:53:41.752Z,100802.00
2023-05-03T09:57:48.133Z,100794.59
2023-05-03T10:01:57.288Z,100800.03
2023-05-03T10:06:03.193Z,100802.25
2023-05-03T10:10:09.323Z,100801.66
2023-05-03T10:14:12.501Z,100800.75
2023-05-03T10:18:22.420Z,100798.38
2023-05-03T10:22:25.434Z,100793.63
2023-05-03T10:26:35.303Z,100795.50
2023-05-03T10:30:42.002Z,100791.72
2023-05-03T10:34:46.978Z,100799.34
2023-05-03T10:38:54.782Z,100794.84
2023-05-03T10:43:00.332Z,100796.38
2023-05-03T10:47:12.599Z,100803.78
2023-05-03T10:51:34.186Z,100797.03
2023-05-03T10:55:37.395Z,100808.47
2023-05-03T10:59:53.699Z,100797.72
2023-05-03T11:04:04.142Z,100798.69
2023-05-03T11:08:13.699Z,100797.50
2023-05-03T11:12:17.068Z,100794.94
2023-05-03T11:16:21.847Z,100804.97
2023-05-03T11:20:25.769Z,100800.91
2023-05-03T11:24:29.509Z,100802.81
2023-05-03T11:28:34.845Z,100803.84
2023-05-03T11:32:39.470Z,100814.53
2023-05-03T11:36:42.974Z,100798.03
2023-05-03T11:40:46.175Z,100804.00
2023-05-03T11:44:49.633Z,100805.44
2023-05-03T11:48:54.223Z,100802.47
2023-05-03T11:52:58.540Z,100812.16
2023-05-03T11:57:02.100Z,100810.16
2023-05-03T12:01:06.125Z,100808.41
2023-05-03T12:05:13.907Z,100796.19
2023-05-03T12:09:18.204Z,100796.06
2023-05-03T12:13:30.785Z,100804.91
2023-05-03T12:17:38.919Z,100801.31
2023-05-03T12:21:59.378Z,100811.03
2023-05-03T12:26:12.189Z,100795.03
2023-05-03T12:30:17.958Z,100794.94
2023-05-03T12:38:31.777Z,100791.88
2023-05-03T12:42:34.718Z,100783.91
2023-05-03T12:46:38.675Z,100784.63
2023-05-03T12:50:45.261Z,100792.53
2023-05-03T12:54:54.971Z,100783.50
2023-05-03T12:59:28.829Z,100775.28
2023-05-03T13:03:32.091Z,100787.81
2023-05-03T13:11:42.249Z,100767.50
2023-05-03T13:15:45.283Z,100771.06
2023-05-03T13:19:48.709Z,100769.47
2023-05-03T13:23:54.284Z,100766.16
2023-05-03T13:28:02.023Z,100768.56
2023-05-03T13:32:04.976Z,100762.16
2023-05-03T13:36:09.548Z,100749.69
2023-05-03T13:40:14.959Z,100742.78
2023-05-03T13:44:22.393Z,100746.03
2023-05-03T13:48:25.409Z,100749.16
2023-05-03T13:52:28.441Z,100748.56
2023-05-03T13:56:31.512Z,100745.50
2023-05-03T14:00:36.153Z,100749.59
2023-05-03T14:04:39.410Z,100746.16
2023-05-03T14:08:45.224Z,100747.13
2023-05-03T14:12:48.186Z,100740.81
2023-05-03T14:16:52.794Z,100752.94
2023-05-03T14:20:55.661Z,100736.75
2023-05-03T14:24:58.573Z,100741.97
2023-05-03T14:29:01.714Z,100751.91
2023-05-03T14:33:06.710Z,100734.69
2023-05-03T14:37:09.753Z,100744.38
2023-05-03T14:41:12.607Z,100737.75
2023-05-03T14:45:15.782Z,100743.19
2023-05-03T14:49:20.681Z,100742.47
2023-05-03T14:53:23.981Z,100746.19
2023-05-03T14:57:27.072Z,100749.13
2023-05-03T15:01:30.340Z,100746.34
2023-05-03T15:05:34.871Z,100741.47
2023-05-03T15:09:38.145Z,100740.94
2023-05-03T15:13:41.061Z,100739.41
2023-05-03T15:17:44.135Z,100748.00
2023-05-03T15:21:52.134Z,100751.31
2023-05-03T15:25:55.135Z,100732.50
2023-05-03T15:29:57.626Z,100750.25
2023-05-03T15:34:02.736Z,100755.81
2023-05-03T15:38:07.557Z,100752.84
2023-05-03T15:42:10.519Z,100748.88
2023-05-03T15:46:13.669Z,100753.47
2023-05-03T15:50:18.216Z,100749.06
2023-05-03T15:54:22.955Z,100755.22
2023-05-03T15:58:26.108Z,100750.97
2023-05-03T16:02:29.196Z,100746.47
2023-05-03T16:06:35.447Z,100747.06
2023-05-03T16:10:40.362Z,100746.28
2023-05-03T16:14:43.342Z,100756.00
2023-05-03T16:18:46.728Z,100752.13
2023-05-03T16:22:51.402Z,100756.41
2023-05-03T16:26:57.191Z,100749.81
2023-05-03T16:31:00.347Z,100749.03
2023-05-03T16:35:03.780Z,100751.16
2023-05-03T16:39:06.898Z,100753.72
2023-05-03T16:43:11.174Z,100753.56
2023-05-03T16:47:14.126Z,100750.00
2023-05-03T16:51:21.961Z,100755.19
2023-05-03T16:55:24.937Z,100763.31
2023-05-03T16:59:31.797Z,100761.41
2023-05-03T17:03:35.864Z,100757.88
2023-05-03T17:07:41.165Z,100761.78
2023-05-03T17:11:44.134Z,100760.44
2023-05-03T17:15:49.098Z,100759.53
2023-05-03T17:19:51.811Z,100760.59
2023-05-03T17:23:55.173Z,100766.50
2023-05-03T17:27:58.423Z,100772.03
2023-05-03T17:32:14.314Z,100776.94
2023-05-03T17:36:18.639Z,100771.41
2023-05-03T17:40:22.786Z,100771.19
2023-05-03T17:44:26.416Z,100774.16
2023-05-03T17:48:30.866Z,100778.34
2023-05-03T17:52:33.901Z,100780.66
2023-05-03T17:56:36.338Z,100792.34
2023-05-03T18:00:39.624Z,100797.97
2023-05-03T18:04:43.993Z,100787.00
2023-05-03T18:08:47.583Z,100795.06
2023-05-03T18:12:50.971Z,100790.75
2023-05-03T18:16:55.430Z,100803.13
2023-05-03T18:21:01.186Z,100797.13
2023-05-03T18:25:07.720Z,100808.44
2023-05-03T18:29:11.153Z,100802.22
2023-05-03T18:33:14.281Z,100801.22
2023-05-03T18:37:19.326Z,100799.41
2023-05-03T18:41:23.299Z,100808.81
2023-05-03T18:45:26.626Z,100797.19
2023-05-03T18:49:29.178Z,100799.53
2023-05-03T18:53:34.628Z,100805.28
2023-05-03T18:57:38.380Z,100811.03
2023-05-03T19:01:41.009Z,100810.69
2023-05-03T19:05:46.401Z,100812.13
2023-05-03T19:09:54.765Z,100816.91
2023-05-03T19:13:57.737Z,100811.38
2023-05-03T19:18:00.827Z,100813.50
2023-05-03T19:22:04.035Z,100819.19
2023-05-03T19:26:10.755Z,100819.56
2023-05-03T19:30:14.359Z,100825.16
2023-05-03T19:34:17.935Z,100823.88
2023-05-03T19:38:21.045Z,100818.97
2023-05-03T19:42:25.146Z,100821.94
2023-05-03T19:46:28.974Z,100821.38
2023-05-03T19:50:31.862Z,100821.75
2023-05-03T19:54:34.984Z,100826.31
2023-05-03T19:58:39.233Z,100821.41
2023-05-03T20:02:42.443Z,100824.16
2023-05-03T20:06:45.711Z,100817.41
2023-05-03T20:10:50.040Z,100824.53
2023-05-03T20:14:54.565Z,100820.47
2023-05-03T20:18:57.323Z,100828.53
2023-05-03T20:23:00.214Z,100815.75
2023-05-03T20:27:04.187Z,100823.00
2023-05-03T20:31:10.471Z,100822.38
2023-05-03T20:35:13.579Z,100817.44
2023-05-03T20:39:16.481Z,100824.56
2023-05-03T20:43:20.011Z,100832.53
2023-05-03T20:47:28.047Z,100833.63
2023-05-03T20:51:32.869Z,100831.28
2023-05-03T20:55:41.428Z,100823.69
2023-05-03T20:59:45.213Z,100823.09
2023-05-03T21:03:49.546Z,100819.78
2023-05-03T21:07:53.144Z,100814.78
2023-05-03T21:11:56.360Z,100818.44
2023-05-03T21:15:59.536Z,100817.72
2023-05-03T21:20:04.196Z,100818.66
2023-05-03T21:24:08.242Z,100820.53
2023-05-03T21:28:11.824Z,100816.28
2023-05-03T21:32:18.003Z,100813.81
2023-05-03T21:36:23.274Z,100803.53
2023-05-03T21:40:30.131Z,100814.13
2023-05-03T21:44:35.117Z,100804.69
2023-05-03T21:48:38.650Z,100803.97
2023-05-03T21:52:43.397Z,100809.38
2023-05-03T21:56:46.549Z,100806.94
2023-05-03T22:00:49.557Z,100813.16
2023-05-03T22:04:53.054Z,100813.25
2023-05-03T22:08:58.331Z,100828.88
2023-05-03T22:13:01.306Z,100814.19
2023-05-03T22:17:04.405Z,100821.25
2023-05-03T22:21:07.573Z,100812.69
2023-05-03T22:25:23.356Z,100815.38
2023-05-03T22:29:26.623Z,100824.16
2023-05-03T22:33:29.732Z,100815.63
2023-05-03T22:37:32.370Z,100818.25
2023-05-03T22:41:38.041Z,100813.09
2023-05-03T22:45:40.962Z,100817.50
2023-05-03T22:49:44.341Z,100819.34
2023-05-03T22:53:47.513Z,100822.88
2023-05-03T22:57:52.303Z,100817.75
2023-05-03T23:01:55.479Z,100825.63
2023-05-03T23:06:01.824Z,100820.53
2023-05-03T23:10:06.655Z,100813.63
2023-05-03T23:14:10.939Z,100819.75
2023-05-03T23:18:14.133Z,100811.19
2023-05-03T23:22:17.047Z,100815.56
2023-05-03T23:26:20.312Z,100813.94
2023-05-03T23:30:25.344Z,100808.78
2023-05-03T23:34:28.706Z,100812.31
2023-05-03T23:38:31.933Z,100801.97
2023-05-03T23:42:35.929Z,100796.84
2023-05-03T23:46:42.109Z,100797.72
2023-05-03T23:50:45.360Z,100796.06
2023-05-03T23:54:48.332Z,100788.28
2023-05-03T23:58:51.163Z,100791.75
